Terminal Aerodrome Forecast
Issued by NWS

Home | Current Version | Previous Version | Text Only | Print | Product List | Glossary On
Versions: 1 2 3 4 5 6 7 8 9 10 11 12
000
FTPA31 PHFO 141720
TAFHJH
TAF
PHJH 141720Z 1418/1518 03017G24KT P6SM VCSH SCT025 BKN040
     FM142000 03023G32KT P6SM VCSH SCT030 BKN040
     FM150500 03017KT P6SM VCSH FEW030 BKN040=

USA.gov is the U.S. government's official web portal to all federal, state and local government web resources and services.